Time;durP1;ratioP1;P1;durP2;ratioP2;P2;SDS_P1;SDS_P2;PMS_P1;PMS_P2;Temp;Humidity;BMP_temperature;BMP_pressure;BME280_temperature;BME280_humidity;BME280_pressure;Samples;Min_cycle;Max_cycle;Signal;HPM_P1;HPM_P2
2021/11/10 00:01:45;;;;;;;15.27;12.10;;;;;;;;;;5020787;28;20922;-81
2021/11/10 00:04:11;;;;;;;20.50;14.80;;;;;;;;;;5020003;28;20870;-79
2021/11/10 00:06:37;;;;;;;19.53;13.33;;;;;;;;;;5027873;28;20433;-80
2021/11/10 00:09:06;;;;;;;22.33;13.43;;;;;;;;;;5038596;28;20410;-80
2021/11/10 00:11:33;;;;;;;18.53;12.77;;;;;;;;;;5038652;28;20774;-81
2021/11/10 00:13:59;;;;;;;20.87;13.20;;;;;;;;;;5036289;28;20418;-81
2021/11/10 00:16:25;;;;;;;20.50;12.10;;;;;;;;;;5038808;28;20406;-81
2021/11/10 00:18:51;;;;;;;21.67;13.70;;;;;;;;;;5041719;28;20407;-82
2021/11/10 00:21:20;;;;;;;23.80;13.00;;;;;;;;;;5041004;28;20387;-81
2021/11/10 00:23:47;;;;;;;16.87;12.23;;;;;;;;;;5038422;28;20415;-81
2021/11/10 00:26:13;;;;;;;19.07;12.17;;;;;;;;;;5039748;28;20442;-81
2021/11/10 00:28:39;;;;;;;21.20;12.40;;;;;;;;;;5039487;28;20971;-81
2021/11/10 00:31:06;;;;;;;16.43;11.80;;;;;;;;;;5029261;28;20427;-81
2021/11/10 00:33:32;;;;;;;19.97;12.00;;;;;;;;;;5023488;28;20420;-81
2021/11/10 00:35:58;;;;;;;15.50;11.17;;;;;;;;;;5021153;28;20487;-81
2021/11/10 00:38:24;;;;;;;17.83;12.13;;;;;;;;;;5019973;28;20414;-81
2021/11/10 00:40:50;;;;;;;16.67;11.93;;;;;;;;;;5034145;28;20418;-81
2021/11/10 00:43:16;;;;;;;20.00;12.20;;;;;;;;;;5039163;28;20423;-80
2021/11/10 00:45:42;;;;;;;16.33;12.53;;;;;;;;;;5038907;28;20438;-80
2021/11/10 00:48:10;;;;;;;18.47;11.13;;;;;;;;;;5040014;28;20926;-80
2021/11/10 00:50:36;;;;;;;15.00;11.03;;;;;;;;;;5037982;28;20411;-79
2021/11/10 00:53:03;;;;;;;15.43;11.93;;;;;;;;;;5037633;28;20414;-81
2021/11/10 00:55:29;;;;;;;18.70;12.00;;;;;;;;;;5039138;28;20428;-80
2021/11/10 00:57:55;;;;;;;13.43;10.90;;;;;;;;;;5036049;28;20500;-80
2021/11/10 01:00:22;;;;;;;17.10;11.13;;;;;;;;;;5023212;28;20483;-80
2021/11/10 01:02:48;;;;;;;16.40;11.63;;;;;;;;;;5037053;28;20477;-80
2021/11/10 01:05:14;;;;;;;13.00;10.17;;;;;;;;;;5038862;28;20465;-80
2021/11/10 01:07:41;;;;;;;19.77;11.80;;;;;;;;;;5038072;28;20926;-80
2021/11/10 01:10:07;;;;;;;14.17;10.60;;;;;;;;;;5038736;28;20411;-80
2021/11/10 01:12:34;;;;;;;18.07;12.67;;;;;;;;;;5037299;28;20415;-80
2021/11/10 01:15:01;;;;;;;19.73;12.33;;;;;;;;;;5038053;28;20526;-80
2021/11/10 01:17:27;;;;;;;20.00;11.67;;;;;;;;;;5038122;28;20933;-80
2021/11/10 01:19:53;;;;;;;19.50;11.53;;;;;;;;;;5037250;28;20920;-78
2021/11/10 01:22:19;;;;;;;18.17;12.00;;;;;;;;;;5036966;28;20449;-81
2021/11/10 01:24:46;;;;;;;14.00;10.97;;;;;;;;;;5038313;28;20517;-82
2021/11/10 01:27:12;;;;;;;15.37;10.67;;;;;;;;;;5039217;28;20407;-81
2021/11/10 01:29:39;;;;;;;16.50;12.10;;;;;;;;;;5038923;28;20812;-81
2021/11/10 01:32:05;;;;;;;16.80;11.43;;;;;;;;;;5038656;28;20490;-80
2021/11/10 01:34:31;;;;;;;17.80;10.40;;;;;;;;;;5037716;28;20435;-82
2021/11/10 01:36:57;;;;;;;16.70;11.90;;;;;;;;;;5029273;28;20434;-81
2021/11/10 01:39:24;;;;;;;16.50;11.33;;;;;;;;;;5019523;28;20412;-81
2021/11/10 01:41:51;;;;;;;17.33;11.63;;;;;;;;;;5019049;28;20415;-81
2021/11/10 01:44:19;;;;;;;13.80;10.20;;;;;;;;;;5020037;28;20482;-77
2021/11/10 01:46:45;;;;;;;14.23;10.53;;;;;;;;;;5027539;28;20539;-81
2021/11/10 01:49:11;;;;;;;15.77;10.40;;;;;;;;;;5039336;28;20896;-80
2021/11/10 01:51:51;;;;;;;19.03;11.13;;;;;;;;;;5038025;28;20481;-82
2021/11/10 01:54:18;;;;;;;15.00;10.70;;;;;;;;;;5038648;28;20452;-81
2021/11/10 01:56:44;;;;;;;19.70;10.80;;;;;;;;;;5036859;28;20940;-81
2021/11/10 01:59:10;;;;;;;15.57;10.77;;;;;;;;;;5037762;28;20899;-81
2021/11/10 02:01:46;;;;;;;16.80;10.87;;;;;;;;;;5036672;28;20419;-81
2021/11/10 02:04:13;;;;;;;14.80;11.13;;;;;;;;;;5037704;28;20426;-81
2021/11/10 02:06:39;;;;;;;13.17;11.07;;;;;;;;;;5037669;28;20499;-81
2021/11/10 02:09:06;;;;;;;16.77;11.60;;;;;;;;;;5037335;28;20418;-81
2021/11/10 02:11:33;;;;;;;16.90;10.87;;;;;;;;;;5037612;28;20403;-81
2021/11/10 02:13:59;;;;;;;17.30;10.60;;;;;;;;;;5026165;28;20447;-82
2021/11/10 02:16:26;;;;;;;18.10;11.13;;;;;;;;;;5017519;28;20923;-80
2021/11/10 02:18:52;;;;;;;16.80;11.47;;;;;;;;;;5025253;28;20442;-81
2021/11/10 02:21:18;;;;;;;15.20;11.20;;;;;;;;;;5037342;28;20490;-81
2021/11/10 02:23:45;;;;;;;14.63;10.60;;;;;;;;;;5037207;28;20431;-81
2021/11/10 02:26:15;;;;;;;16.47;12.30;;;;;;;;;;5036726;28;20478;-81
2021/11/10 02:28:41;;;;;;;14.70;10.43;;;;;;;;;;5035357;28;20850;-81
2021/11/10 02:31:09;;;;;;;16.00;10.47;;;;;;;;;;5036031;28;20421;-81
2021/11/10 02:33:35;;;;;;;12.87;10.47;;;;;;;;;;5036424;28;20930;-81
2021/11/10 02:36:02;;;;;;;14.60;10.17;;;;;;;;;;5036749;28;20411;-81
2021/11/10 02:38:29;;;;;;;17.83;11.00;;;;;;;;;;5040108;28;20494;-80
2021/11/10 02:40:57;;;;;;;17.40;10.50;;;;;;;;;;5038059;28;21010;-81
2021/11/10 02:43:23;;;;;;;12.60;9.27;;;;;;;;;;5040703;28;20426;-81
2021/11/10 02:45:49;;;;;;;15.17;10.83;;;;;;;;;;5038060;28;20451;-81
2021/11/10 02:48:16;;;;;;;16.37;11.40;;;;;;;;;;5037238;28;20410;-81
2021/11/10 02:50:42;;;;;;;14.97;10.50;;;;;;;;;;5036487;28;20411;-81
2021/11/10 02:53:09;;;;;;;16.80;11.37;;;;;;;;;;5036496;28;20434;-81
2021/11/10 02:55:35;;;;;;;16.77;11.57;;;;;;;;;;5039154;28;20413;-81
2021/11/10 02:58:01;;;;;;;15.67;12.47;;;;;;;;;;5041448;28;20501;-81
2021/11/10 03:00:28;;;;;;;14.50;10.20;;;;;;;;;;5020384;28;20426;-81
2021/11/10 03:02:55;;;;;;;12.80;11.10;;;;;;;;;;5036363;28;20403;-80
2021/11/10 03:05:25;;;;;;;13.43;10.50;;;;;;;;;;5036332;28;20490;-80
2021/11/10 03:07:51;;;;;;;15.70;10.83;;;;;;;;;;5036046;28;20433;-80
2021/11/10 03:10:18;;;;;;;15.67;10.63;;;;;;;;;;5036733;28;20410;-81
2021/11/10 03:12:44;;;;;;;17.83;10.80;;;;;;;;;;5036405;28;20427;-81
2021/11/10 03:15:11;;;;;;;15.17;10.43;;;;;;;;;;5036202;28;20830;-79
2021/11/10 03:17:38;;;;;;;15.67;11.60;;;;;;;;;;5036668;28;20407;-81
2021/11/10 03:20:04;;;;;;;17.13;11.70;;;;;;;;;;5019423;28;20446;-82
2021/11/10 03:22:30;;;;;;;14.13;11.23;;;;;;;;;;5026458;28;20430;-80
2021/11/10 03:24:57;;;;;;;18.30;11.90;;;;;;;;;;5035610;28;20516;-81
2021/11/10 03:27:23;;;;;;;14.13;11.20;;;;;;;;;;5036362;28;20504;-79
2021/11/10 03:29:53;;;;;;;14.50;10.73;;;;;;;;;;5040446;28;20846;-80
2021/11/10 03:32:20;;;;;;;15.63;10.00;;;;;;;;;;5042556;28;20918;-81
2021/11/10 03:34:46;;;;;;;19.70;10.80;;;;;;;;;;5041587;28;20443;-80
2021/11/10 03:37:13;;;;;;;14.47;10.77;;;;;;;;;;5043630;28;20410;-80
2021/11/10 03:39:39;;;;;;;14.60;9.77;;;;;;;;;;5043605;28;20837;-82
2021/11/10 03:42:05;;;;;;;15.10;10.50;;;;;;;;;;5041623;28;20908;-81
2021/11/10 03:44:31;;;;;;;18.93;11.30;;;;;;;;;;5039827;28;20962;-82
2021/11/10 03:46:58;;;;;;;17.83;11.20;;;;;;;;;;5034568;28;20430;-80
2021/11/10 03:49:25;;;;;;;19.07;11.80;;;;;;;;;;5027140;28;20407;-81
2021/11/10 03:51:52;;;;;;;13.83;9.10;;;;;;;;;;5042859;28;20462;-81
2021/11/10 03:54:18;;;;;;;13.00;9.80;;;;;;;;;;5035667;28;20806;-80
2021/11/10 03:56:44;;;;;;;16.73;10.70;;;;;;;;;;5022079;28;20506;-78
2021/11/10 03:59:11;;;;;;;15.43;11.30;;;;;;;;;;5027554;28;20477;-80
2021/11/10 04:01:37;;;;;;;14.63;10.07;;;;;;;;;;5023561;28;20407;-79
2021/11/10 04:04:03;;;;;;;11.77;9.33;;;;;;;;;;5025844;28;20481;-79
2021/11/10 04:06:31;;;;;;;13.57;9.33;;;;;;;;;;5025699;28;20537;-80
2021/11/10 04:08:57;;;;;;;13.67;10.13;;;;;;;;;;5039226;28;20528;-81
2021/11/10 04:11:23;;;;;;;15.47;9.00;;;;;;;;;;5042483;28;20762;-81
2021/11/10 04:13:49;;;;;;;13.07;9.63;;;;;;;;;;5041148;28;20942;-81
2021/11/10 04:16:20;;;;;;;13.07;9.93;;;;;;;;;;5042669;28;20411;-82
2021/11/10 04:18:47;;;;;;;16.30;11.03;;;;;;;;;;5041780;28;20391;-81
2021/11/10 04:21:13;;;;;;;14.60;10.90;;;;;;;;;;5035916;28;20407;-82
2021/11/10 04:23:39;;;;;;;14.03;10.00;;;;;;;;;;5039984;28;20487;-81
2021/11/10 04:26:05;;;;;;;11.27;8.93;;;;;;;;;;5042681;28;20458;-82
2021/11/10 04:28:32;;;;;;;13.60;10.80;;;;;;;;;;5035982;28;20475;-80
2021/11/10 04:30:58;;;;;;;15.00;9.77;;;;;;;;;;5042015;28;20414;-80
2021/11/10 04:33:24;;;;;;;14.80;11.40;;;;;;;;;;5043035;28;20442;-81
2021/11/10 04:35:50;;;;;;;13.00;9.97;;;;;;;;;;5042769;28;20966;-81
2021/11/10 04:38:17;;;;;;;11.90;8.83;;;;;;;;;;5042891;28;20423;-80
2021/11/10 04:40:44;;;;;;;14.00;9.90;;;;;;;;;;5038257;28;20761;-80
2021/11/10 04:43:10;;;;;;;21.53;9.90;;;;;;;;;;5038079;28;20426;-81
2021/11/10 04:45:38;;;;;;;11.57;9.90;;;;;;;;;;5039089;28;20871;-81
2021/11/10 04:48:05;;;;;;;16.03;10.27;;;;;;;;;;5039235;28;20403;-81
2021/11/10 04:50:31;;;;;;;17.23;10.70;;;;;;;;;;5040112;28;20417;-81
2021/11/10 04:52:57;;;;;;;15.47;9.73;;;;;;;;;;5026476;28;20916;-81
2021/11/10 04:55:23;;;;;;;15.33;9.57;;;;;;;;;;5018717;28;20465;-81
2021/11/10 04:57:49;;;;;;;13.23;9.97;;;;;;;;;;5024764;28;20912;-81
2021/11/10 05:00:16;;;;;;;17.17;10.00;;;;;;;;;;5034196;28;20438;-81
2021/11/10 05:02:42;;;;;;;15.17;11.07;;;;;;;;;;5037719;28;20915;-80
2021/11/10 05:05:08;;;;;;;14.43;10.80;;;;;;;;;;5037541;28;20461;-78
2021/11/10 05:07:34;;;;;;;16.80;11.63;;;;;;;;;;5036892;28;20410;-81
2021/11/10 05:10:01;;;;;;;12.60;10.07;;;;;;;;;;5018928;28;20473;-78
2021/11/10 05:12:28;;;;;;;12.43;9.70;;;;;;;;;;5043412;28;20529;-81
2021/11/10 05:14:55;;;;;;;16.03;10.03;;;;;;;;;;5057859;22;20609;-66
2021/11/10 05:17:22;;;;;;;17.37;11.00;;;;;;;;;;5035296;28;20410;-66
2021/11/10 05:19:49;;;;;;;15.23;10.27;;;;;;;;;;5061096;23;20492;-63
2021/11/10 05:22:16;;;;;;;13.77;10.40;;;;;;;;;;5076259;28;20443;-65
2021/11/10 05:24:42;;;;;;;14.63;11.97;;;;;;;;;;5066879;28;20485;-63
2021/11/10 05:27:08;;;;;;;14.60;10.67;;;;;;;;;;5075698;28;20970;-64
2021/11/10 05:29:34;;;;;;;14.43;10.17;;;;;;;;;;5075870;28;20425;-65
2021/11/10 05:32:00;;;;;;;15.90;11.43;;;;;;;;;;5075936;28;20409;-62
2021/11/10 05:34:26;;;;;;;16.33;10.30;;;;;;;;;;5074734;28;20413;-64
2021/11/10 05:36:52;;;;;;;14.40;11.17;;;;;;;;;;5076118;28;20398;-64
2021/11/10 05:39:19;;;;;;;14.93;10.00;;;;;;;;;;5075970;28;20495;-63
2021/11/10 05:41:45;;;;;;;16.60;11.53;;;;;;;;;;5076001;28;20417;-64
2021/11/10 05:44:12;;;;;;;16.23;11.40;;;;;;;;;;5075518;28;20827;-64
2021/11/10 05:46:38;;;;;;;20.17;12.37;;;;;;;;;;5075507;28;20904;-63
2021/11/10 05:49:04;;;;;;;14.70;10.90;;;;;;;;;;5075874;28;20454;-65
2021/11/10 05:51:31;;;;;;;16.00;12.63;;;;;;;;;;5075671;28;20913;-65
2021/11/10 05:53:57;;;;;;;17.50;12.57;;;;;;;;;;5075754;28;20405;-63
2021/11/10 05:56:25;;;;;;;17.97;11.60;;;;;;;;;;5073317;28;20502;-62
2021/11/10 05:58:52;;;;;;;15.50;10.93;;;;;;;;;;5054694;28;20405;-64
2021/11/10 06:01:18;;;;;;;14.07;10.47;;;;;;;;;;5054896;28;20422;-62
2021/11/10 06:03:44;;;;;;;17.30;10.80;;;;;;;;;;5074479;28;20428;-62
2021/11/10 06:06:10;;;;;;;16.53;11.33;;;;;;;;;;5073929;28;20453;-62
2021/11/10 06:08:37;;;;;;;16.40;11.10;;;;;;;;;;5074508;28;20484;-64
2021/11/10 06:11:07;;;;;;;14.93;11.27;;;;;;;;;;5074093;28;20457;-63
2021/11/10 06:13:33;;;;;;;17.23;11.80;;;;;;;;;;5074156;28;20412;-64
2021/11/10 06:15:59;;;;;;;16.27;11.17;;;;;;;;;;5073047;28;20458;-62
2021/11/10 06:18:25;;;;;;;13.83;10.10;;;;;;;;;;5053966;28;20406;-64
2021/11/10 06:20:51;;;;;;;17.90;11.70;;;;;;;;;;5054199;28;20442;-62
2021/11/10 06:23:17;;;;;;;12.67;10.00;;;;;;;;;;5054095;28;20406;-64
2021/11/10 06:25:43;;;;;;;16.73;10.93;;;;;;;;;;5053826;28;20503;-63
2021/11/10 06:28:09;;;;;;;13.73;10.43;;;;;;;;;;5062430;28;20409;-64
2021/11/10 06:30:35;;;;;;;29.60;19.00;;;;;;;;;;5054026;28;20835;-63
2021/11/10 06:33:01;;;;;;;13.63;10.40;;;;;;;;;;5053741;28;20832;-63
2021/11/10 06:35:28;;;;;;;12.90;10.60;;;;;;;;;;5053870;28;20875;-63
2021/11/10 06:37:54;;;;;;;14.20;10.53;;;;;;;;;;5066127;28;20413;-64
2021/11/10 06:40:20;;;;;;;15.93;10.50;;;;;;;;;;5073928;28;20755;-63
2021/11/10 06:42:46;;;;;;;14.20;11.13;;;;;;;;;;5073889;28;20483;-63
2021/11/10 06:45:13;;;;;;;15.97;10.30;;;;;;;;;;5073885;28;20449;-63
2021/11/10 06:47:39;;;;;;;15.67;10.37;;;;;;;;;;5073262;28;20417;-63
2021/11/10 06:50:05;;;;;;;17.13;11.10;;;;;;;;;;5073461;28;20432;-63
2021/11/10 06:52:32;;;;;;;14.23;9.97;;;;;;;;;;5073990;28;20409;-63
2021/11/10 06:54:58;;;;;;;18.23;11.50;;;;;;;;;;5073640;28;20413;-62
2021/11/10 06:57:27;;;;;;;14.53;11.20;;;;;;;;;;5054673;28;20428;-63
2021/11/10 06:59:54;;;;;;;14.60;10.13;;;;;;;;;;5073122;28;20519;-63
2021/11/10 07:02:20;;;;;;;14.97;10.17;;;;;;;;;;5074118;28;20402;-63
2021/11/10 07:04:46;;;;;;;17.47;9.63;;;;;;;;;;5073279;28;20455;-64
2021/11/10 07:07:14;;;;;;;13.93;9.53;;;;;;;;;;5073516;28;20424;-63
2021/11/10 07:09:40;;;;;;;14.60;10.50;;;;;;;;;;5073638;28;20440;-63
2021/11/10 07:12:06;;;;;;;12.90;9.23;;;;;;;;;;5073857;28;20400;-63
2021/11/10 07:14:32;;;;;;;15.37;9.37;;;;;;;;;;5074201;28;20405;-63
2021/11/10 07:16:58;;;;;;;14.13;10.23;;;;;;;;;;5074215;28;20474;-63
2021/11/10 07:19:24;;;;;;;16.97;10.87;;;;;;;;;;5072636;28;20448;-64
2021/11/10 07:21:50;;;;;;;14.47;9.87;;;;;;;;;;5074279;28;20433;-62
2021/11/10 07:24:16;;;;;;;20.00;10.57;;;;;;;;;;5072499;28;20405;-63
2021/11/10 07:26:43;;;;;;;13.83;10.07;;;;;;;;;;5074237;28;20413;-63
2021/11/10 07:29:09;;;;;;;14.70;11.03;;;;;;;;;;5074181;28;20408;-64
2021/11/10 07:31:35;;;;;;;13.90;10.10;;;;;;;;;;5074313;28;20415;-62
2021/11/10 07:34:02;;;;;;;12.20;9.83;;;;;;;;;;5074262;28;20451;-63
2021/11/10 07:36:28;;;;;;;14.13;9.27;;;;;;;;;;5074775;28;20408;-62
2021/11/10 07:38:56;;;;;;;15.43;9.73;;;;;;;;;;5074552;28;20401;-64
2021/11/10 07:41:23;;;;;;;16.47;9.43;;;;;;;;;;5073769;28;20808;-65
2021/11/10 07:43:52;;;;;;;12.00;9.57;;;;;;;;;;5074677;28;20447;-63
2021/11/10 07:46:20;;;;;;;12.47;9.00;;;;;;;;;;5074966;28;20784;-63
2021/11/10 07:48:47;;;;;;;17.13;9.90;;;;;;;;;;5073914;28;20413;-64
2021/11/10 07:51:13;;;;;;;9.97;8.90;;;;;;;;;;5073183;28;20433;-64
2021/11/10 07:53:39;;;;;;;14.93;10.17;;;;;;;;;;5074177;28;20421;-64
2021/11/10 07:56:06;;;;;;;14.53;10.50;;;;;;;;;;5073859;28;20445;-63
2021/11/10 07:58:32;;;;;;;15.37;10.60;;;;;;;;;;5074711;28;20895;-62
2021/11/10 08:00:58;;;;;;;13.87;9.10;;;;;;;;;;5070330;28;20531;-63
2021/11/10 08:03:24;;;;;;;18.60;10.73;;;;;;;;;;5071777;28;20463;-63
2021/11/10 08:05:50;;;;;;;21.53;12.53;;;;;;;;;;5072362;28;20535;-63
2021/11/10 08:08:16;;;;;;;26.73;12.87;;;;;;;;;;5069071;28;20423;-63
2021/11/10 08:10:43;;;;;;;17.20;11.03;;;;;;;;;;5061298;28;20440;-65
2021/11/10 08:13:09;;;;;;;16.30;11.53;;;;;;;;;;5064009;28;20540;-62
2021/11/10 08:15:36;;;;;;;20.67;13.63;;;;;;;;;;5072610;28;20424;-64
2021/11/10 08:18:03;;;;;;;14.27;10.80;;;;;;;;;;5069324;28;20504;-61
2021/11/10 08:20:29;;;;;;;13.63;10.30;;;;;;;;;;5073647;28;20487;-62
2021/11/10 08:22:56;;;;;;;16.40;11.00;;;;;;;;;;5071369;28;20466;-63
2021/11/10 08:25:23;;;;;;;16.13;11.67;;;;;;;;;;5070893;28;20572;-63
2021/11/10 08:27:49;;;;;;;15.13;10.57;;;;;;;;;;5069277;28;20940;-64
2021/11/10 08:30:18;;;;;;;21.00;10.30;;;;;;;;;;5074515;28;20498;-63
2021/11/10 08:32:45;;;;;;;14.67;9.80;;;;;;;;;;5073999;28;20416;-68
2021/11/10 08:35:11;;;;;;;17.57;10.90;;;;;;;;;;5074483;28;20424;-65
2021/11/10 08:37:38;;;;;;;12.50;9.17;;;;;;;;;;5074767;28;20769;-64
2021/11/10 08:40:05;;;;;;;14.13;8.57;;;;;;;;;;5071190;28;20429;-70
2021/11/10 08:42:34;;;;;;;10.60;9.10;;;;;;;;;;5074147;28;20466;-68
2021/11/10 08:45:01;;;;;;;13.07;9.20;;;;;;;;;;5074404;28;20456;-68
2021/11/10 08:47:27;;;;;;;17.10;9.40;;;;;;;;;;5071932;28;20892;-68
2021/11/10 08:49:53;;;;;;;12.07;9.20;;;;;;;;;;5066911;28;20554;-71
2021/11/10 08:52:19;;;;;;;13.10;8.73;;;;;;;;;;5070227;28;20417;-70
2021/11/10 08:54:46;;;;;;;10.97;8.53;;;;;;;;;;5072357;28;20922;-63
2021/11/10 08:57:12;;;;;;;13.88;10.20;;;;;;;;;;5073675;28;20422;-64
2021/11/10 08:59:38;;;;;;;30.03;12.20;;;;;;;;;;5079544;28;20190;-66
2021/11/10 09:02:04;;;;;;;16.70;12.40;;;;;;;;;;5073585;28;20406;-64
2021/11/10 09:04:30;;;;;;;12.97;9.70;;;;;;;;;;5072375;28;20496;-68
2021/11/10 09:06:57;;;;;;;15.10;8.80;;;;;;;;;;5073114;28;20409;-67
2021/11/10 09:09:23;;;;;;;13.60;9.00;;;;;;;;;;5071746;28;20456;-67
2021/11/10 09:11:50;;;;;;;14.00;9.33;;;;;;;;;;5075607;28;20455;-68
2021/11/10 09:14:17;;;;;;;13.50;9.40;;;;;;;;;;5074748;28;20848;-69
2021/11/10 09:16:43;;;;;;;18.47;10.37;;;;;;;;;;5075478;28;20755;-67
2021/11/10 09:19:09;;;;;;;12.17;9.43;;;;;;;;;;5074436;28;20411;-69
2021/11/10 09:21:35;;;;;;;15.10;9.60;;;;;;;;;;5073143;28;20397;-68
2021/11/10 09:24:01;;;;;;;10.97;8.33;;;;;;;;;;5073950;28;20415;-65
2021/11/10 09:26:27;;;;;;;13.90;8.60;;;;;;;;;;5070271;28;20819;-70
2021/11/10 09:28:54;;;;;;;12.50;10.13;;;;;;;;;;5072904;28;20683;-68
2021/11/10 09:31:22;;;;;;;15.60;9.00;;;;;;;;;;5068983;28;20436;-67
2021/11/10 09:33:49;;;;;;;10.60;8.07;;;;;;;;;;5073601;28;20405;-67
2021/11/10 09:36:16;;;;;;;13.73;8.73;;;;;;;;;;5073775;28;20420;-67
2021/11/10 09:38:42;;;;;;;13.87;9.70;;;;;;;;;;5071854;28;20579;-68
2021/11/10 09:41:08;;;;;;;12.07;8.10;;;;;;;;;;5069609;28;20439;-69
2021/11/10 09:43:36;;;;;;;14.20;8.77;;;;;;;;;;5072357;28;20788;-68
2021/11/10 09:46:02;;;;;;;11.00;8.57;;;;;;;;;;5093939;28;20480;-66
2021/11/10 09:48:29;;;;;;;17.73;7.80;;;;;;;;;;5073545;28;20412;-67
2021/11/10 09:50:55;;;;;;;19.80;8.00;;;;;;;;;;5066538;28;20476;-70
2021/11/10 09:53:22;;;;;;;10.43;7.73;;;;;;;;;;5067770;28;20417;-72
2021/11/10 09:55:48;;;;;;;10.50;8.00;;;;;;;;;;5071907;28;20428;-72
2021/11/10 09:58:15;;;;;;;12.73;8.27;;;;;;;;;;5070284;28;20515;-70
2021/11/10 10:00:41;;;;;;;13.20;9.07;;;;;;;;;;5073064;28;20478;-70
2021/11/10 10:03:08;;;;;;;9.60;7.00;;;;;;;;;;5069017;28;20872;-70
2021/11/10 10:05:35;;;;;;;11.30;8.00;;;;;;;;;;5066364;28;20568;-68
2021/11/10 10:08:02;;;;;;;12.23;8.63;;;;;;;;;;5073104;28;20503;-66
2021/11/10 10:10:29;;;;;;;10.63;8.33;;;;;;;;;;5073143;28;20837;-65
2021/11/10 10:12:56;;;;;;;10.97;8.23;;;;;;;;;;5071162;28;20436;-65
2021/11/10 10:15:25;;;;;;;12.40;8.50;;;;;;;;;;5069928;28;20493;-69
2021/11/10 10:17:58;;;;;;;10.90;8.57;;;;;;;;;;5066543;28;20420;-70
2021/11/10 10:20:29;;;;;;;12.60;8.02;;;;;;;;;;5064636;28;21006;-66
2021/11/10 10:22:55;;;;;;;17.07;9.27;;;;;;;;;;5072111;28;20213;-66
2021/11/10 10:25:22;;;;;;;13.00;8.67;;;;;;;;;;5064293;28;20492;-65
2021/11/10 10:27:53;;;;;;;13.83;8.53;;;;;;;;;;5070141;28;20507;-65
2021/11/10 10:30:29;;;;;;;13.70;7.40;;;;;;;;;;5070792;28;20823;-65
2021/11/10 10:33:00;;;;;;;11.70;8.23;;;;;;;;;;5070664;28;20404;-65
2021/11/10 10:35:26;;;;;;;16.10;8.40;;;;;;;;;;5072063;28;20423;-66
2021/11/10 10:37:52;;;;;;;13.00;7.77;;;;;;;;;;5064017;28;20508;-68
2021/11/10 10:40:19;;;;;;;11.80;8.25;;;;;;;;;;5072320;28;20427;-70
2021/11/10 10:42:46;;;;;;;12.93;8.07;;;;;;;;;;5073819;28;20186;-70
2021/11/10 10:45:25;;;;;;;11.03;8.23;;;;;;;;;;5071865;28;20813;-70
2021/11/10 10:48:03;;;;;;;13.97;9.17;;;;;;;;;;5067938;28;20488;-71
2021/11/10 10:50:41;;;;;;;17.83;8.93;;;;;;;;;;5070203;28;20859;-71
2021/11/10 10:53:08;;;;;;;12.70;7.87;;;;;;;;;;5070855;28;20400;-71
2021/11/10 10:55:36;;;;;;;22.20;9.40;;;;;;;;;;5065681;28;20778;-70
2021/11/10 10:58:03;;;;;;;14.80;9.10;;;;;;;;;;5068036;28;20429;-72
2021/11/10 11:00:30;;;;;;;18.00;9.23;;;;;;;;;;5071391;28;20429;-72
2021/11/10 11:02:58;;;;;;;14.87;10.13;;;;;;;;;;5069122;28;20757;-72
2021/11/10 11:05:38;;;;;;;19.33;9.97;;;;;;;;;;5070616;28;20609;-72
2021/11/10 11:08:22;;;;;;;16.13;9.47;;;;;;;;;;5077221;28;20760;-72
2021/11/10 11:10:49;;;;;;;7.13;6.30;;;;;;;;;;5060675;28;20433;-68
2021/11/10 11:13:20;;;;;;;10.93;7.47;;;;;;;;;;5055436;28;20736;-70
2021/11/10 11:16:03;;;;;;;8.73;6.73;;;;;;;;;;5068484;28;20408;-67
2021/11/10 11:18:29;;;;;;;11.07;7.80;;;;;;;;;;5058863;28;20450;-66
2021/11/10 11:20:55;;;;;;;10.50;7.10;;;;;;;;;;5070971;28;20851;-67
2021/11/10 11:23:21;;;;;;;12.07;7.70;;;;;;;;;;5071489;28;20415;-67
2021/11/10 11:25:47;;;;;;;11.83;7.60;;;;;;;;;;5068933;28;20493;-67
2021/11/10 11:28:15;;;;;;;12.10;7.43;;;;;;;;;;5070250;28;20440;-66
2021/11/10 11:30:41;;;;;;;10.60;7.73;;;;;;;;;;5071092;28;20432;-65
2021/11/10 11:33:15;;;;;;;11.40;7.63;;;;;;;;;;5074504;28;20409;-65
2021/11/10 11:35:42;;;;;;;18.90;7.70;;;;;;;;;;5071637;28;20412;-66
2021/11/10 11:38:19;;;;;;;12.80;7.57;;;;;;;;;;5070062;28;20408;-66
2021/11/10 11:40:47;;;;;;;15.00;7.50;;;;;;;;;;5067679;28;20474;-65
2021/11/10 11:43:16;;;;;;;12.13;5.83;;;;;;;;;;5070794;28;20411;-65
2021/11/10 11:45:45;;;;;;;17.60;7.10;;;;;;;;;;5072181;28;20448;-65
2021/11/10 11:48:11;;;;;;;8.07;5.57;;;;;;;;;;5067815;28;20494;-65
2021/11/10 11:50:37;;;;;;;12.03;7.43;;;;;;;;;;5073738;28;20786;-66
2021/11/10 11:53:03;;;;;;;12.60;6.30;;;;;;;;;;5077096;28;20494;-66
2021/11/10 11:55:29;;;;;;;15.40;6.57;;;;;;;;;;5075394;28;20417;-66
2021/11/10 11:58:19;;;;;;;14.40;6.73;;;;;;;;;;5074850;28;20412;-65
2021/11/10 12:00:45;;;;;;;10.57;6.10;;;;;;;;;;5071903;28;20448;-65
2021/11/10 12:03:23;;;;;;;16.20;7.20;;;;;;;;;;5077214;28;20774;-65
2021/11/10 12:05:53;;;;;;;7.60;5.20;;;;;;;;;;5069514;28;20467;-65
2021/11/10 12:08:37;;;;;;;10.00;6.20;;;;;;;;;;5077777;28;20473;-65
2021/11/10 12:11:29;;;;;;;12.50;5.50;;;;;;;;;;5075762;28;20447;-65
2021/11/10 12:14:05;;;;;;;8.70;5.60;;;;;;;;;;5071223;28;20404;-64
2021/11/10 12:16:47;;;;;;;9.27;6.43;;;;;;;;;;5076524;28;21049;-65
2021/11/10 12:19:20;;;;;;;30.07;9.70;;;;;;;;;;5077528;28;20415;-65
2021/11/10 12:21:48;;;;;;;10.00;5.80;;;;;;;;;;5069595;28;20409;-64
2021/11/10 12:24:16;;;;;;;11.80;6.47;;;;;;;;;;5079738;28;20423;-65
2021/11/10 12:27:01;;;;;;;10.40;5.97;;;;;;;;;;5074841;28;20448;-65
2021/11/10 12:29:43;;;;;;;8.77;5.00;;;;;;;;;;5074779;28;20473;-67
2021/11/10 12:32:09;;;;;;;6.80;4.87;;;;;;;;;;5077965;28;20404;-64
2021/11/10 12:34:37;;;;;;;7.13;4.63;;;;;;;;;;5076830;28;20415;-64
2021/11/10 12:37:10;;;;;;;8.70;4.70;;;;;;;;;;5076422;28;20461;-66
2021/11/10 12:39:36;;;;;;;9.87;5.20;;;;;;;;;;5076547;28;20424;-67
2021/11/10 12:42:22;;;;;;;6.60;5.40;;;;;;;;;;5070688;28;20996;-64
2021/11/10 12:44:50;;;;;;;12.73;5.97;;;;;;;;;;5077846;28;20466;-64
2021/11/10 12:47:16;;;;;;;8.37;5.37;;;;;;;;;;5074797;28;20417;-66
2021/11/10 12:49:43;;;;;;;9.10;4.80;;;;;;;;;;5082916;28;20523;-65
2021/11/10 12:52:18;;;;;;;11.20;4.60;;;;;;;;;;5073744;28;20417;-65
2021/11/10 12:54:45;;;;;;;6.30;4.90;;;;;;;;;;5069409;28;20954;-65
2021/11/10 12:57:28;;;;;;;6.90;4.80;;;;;;;;;;5079330;28;20427;-65
2021/11/10 12:59:54;;;;;;;6.90;5.60;;;;;;;;;;5074467;28;20516;-66
2021/11/10 13:02:21;;;;;;;9.27;5.07;;;;;;;;;;5071609;28;20431;-65
2021/11/10 13:04:58;;;;;;;19.93;10.37;;;;;;;;;;5074804;28;20444;-64
2021/11/10 13:07:31;;;;;;;9.40;5.23;;;;;;;;;;5073697;28;20405;-65
2021/11/10 13:10:04;;;;;;;16.17;13.37;;;;;;;;;;5076161;28;20858;-64
2021/11/10 13:12:31;;;;;;;9.43;5.40;;;;;;;;;;5074442;28;20423;-65
2021/11/10 13:14:57;;;;;;;8.17;5.40;;;;;;;;;;5074735;28;20424;-65
2021/11/10 13:17:30;;;;;;;10.23;5.30;;;;;;;;;;5067976;28;20401;-67
2021/11/10 13:20:06;;;;;;;11.70;6.00;;;;;;;;;;5071493;28;20594;-69
2021/11/10 13:22:37;;;;;;;15.00;4.87;;;;;;;;;;5068561;28;20989;-66
2021/11/10 13:25:14;;;;;;;6.13;4.40;;;;;;;;;;5072166;28;20437;-67
2021/11/10 13:27:40;;;;;;;8.13;5.30;;;;;;;;;;5069526;28;20428;-66
2021/11/10 13:30:08;;;;;;;9.03;4.63;;;;;;;;;;5073000;28;20474;-66
2021/11/10 13:32:38;;;;;;;16.43;7.13;;;;;;;;;;5072761;28;20478;-65
2021/11/10 13:35:05;;;;;;;7.60;5.07;;;;;;;;;;5073549;28;20480;-66
2021/11/10 13:37:41;;;;;;;6.67;5.10;;;;;;;;;;5070648;28;20753;-66
2021/11/10 13:40:07;;;;;;;7.70;5.10;;;;;;;;;;5073143;28;20435;-66
2021/11/10 13:42:34;;;;;;;9.27;5.30;;;;;;;;;;5072846;28;20418;-66
2021/11/10 13:45:13;;;;;;;8.17;5.07;;;;;;;;;;5062937;28;20508;-67
2021/11/10 13:47:40;;;;;;;12.70;7.70;;;;;;;;;;5073778;28;20396;-67
2021/11/10 13:50:07;;;;;;;8.03;5.50;;;;;;;;;;5073109;28;20490;-66
2021/11/10 13:52:34;;;;;;;7.17;5.27;;;;;;;;;;5073563;28;20832;-66
2021/11/10 13:55:02;;;;;;;9.07;5.30;;;;;;;;;;5070600;28;20417;-64
2021/11/10 13:57:33;;;;;;;8.10;5.23;;;;;;;;;;5073031;28;20428;-66
2021/11/10 14:00:00;;;;;;;8.20;5.47;;;;;;;;;;5065940;28;20449;-68
2021/11/10 14:02:43;;;;;;;5.17;4.27;;;;;;;;;;5072491;28;20462;-67
2021/11/10 14:05:13;;;;;;;7.57;4.70;;;;;;;;;;5069097;28;20968;-65
2021/11/10 14:07:40;;;;;;;5.70;3.83;;;;;;;;;;5074553;28;20423;-67
2021/11/10 14:10:08;;;;;;;12.13;5.13;;;;;;;;;;5071816;28;20429;-67
2021/11/10 14:12:37;;;;;;;8.27;5.40;;;;;;;;;;5071137;28;20423;-65
2021/11/10 14:15:11;;;;;;;7.37;6.23;;;;;;;;;;5072253;28;20417;-66
2021/11/10 14:17:38;;;;;;;11.27;7.83;;;;;;;;;;5072745;28;20760;-66
2021/11/10 14:20:09;;;;;;;13.73;7.63;;;;;;;;;;5072256;28;20828;-66
2021/11/10 14:22:35;;;;;;;13.23;8.03;;;;;;;;;;5066235;28;20405;-65
2021/11/10 14:25:05;;;;;;;16.80;10.57;;;;;;;;;;5072180;28;20806;-65
2021/11/10 14:27:36;;;;;;;22.03;13.93;;;;;;;;;;5063957;28;20646;-66